Hovedside
METAR-TAF:

METAR-TAF

Lufthavner :

Xi'an Xianyang internasjonale lufthavn

Xi'an, Kina

breddegrad: 34-26N, lengdegrad: 108-45E, høyde over havet: 479 m

Gjeldene værobservasjon

Denne rapporten ble laget for 15 minutter siden, klokken 04:00 UTC
Vind 6 kt fra Øst-nordøst, skiftende mellom Nord og Øst-sørøst
Temperatur 19°C
Luftfuktighet 40%
Trykk 1017 hPa
Sikt 10 km eller mer
ingen skyer under 1500 m og ingen bygeskyer

METAR: ZLXY 240400Z 07003MPS 010V120 CAVOK 19/05 Q1017 NOSIG

Tid: 12:15 (04:15 UTC)

Varsel

Denne rapporten ble laget for 9 timer og 8 minutter siden, klokken 19:07 UTC
Varsel gyldig fra 24. klokken 00 UTC til 24. klokken 24 UTC
Vind 6 kt fra Øst-nordøst
Sikt: 4000 m
dis

TAF: ZLXY 231907Z 2400/2424 06003MPS 4000 HZ NSC TX21/2407Z TN09/2400Z

Værobservasjoner og værvarsel for over 4000 flyplasser (METAR- og TAF-rapporter).

Tilgjengelige stasjoner er representert av de røde og gule prikkene på kartet.

Hold musepekeren over prikken for å se navnet på stasjonen.

Klikk så for å se værobservasjoner og -varsler.

For å forandre kartet kan du klikke på den grønne knappen med svart kryss for å zoome inn, på den grønne knappen med strek for å zoome ut, eller på de grønne pilene for å se tilstøtende kart.


METAR-TAF: